sensor_id;sensor_type;location;lat;lon;timestamp;P1;durP1;ratioP1;P2;durP2;ratioP2
37529;SDS011;23374;52.758;6.872;2024-02-16T00:01:16;5.53;;;2.73;;
37529;SDS011;23374;52.758;6.872;2024-02-16T00:03:37;3.77;;;2.57;;
37529;SDS011;23374;52.758;6.872;2024-02-16T00:05:57;4.60;;;2.80;;
37529;SDS011;23374;52.758;6.872;2024-02-16T00:08:19;6.40;;;2.60;;
37529;SDS011;23374;52.758;6.872;2024-02-16T00:10:40;3.77;;;2.73;;
37529;SDS011;23374;52.758;6.872;2024-02-16T00:13:02;4.37;;;2.80;;
37529;SDS011;23374;52.758;6.872;2024-02-16T00:15:23;8.23;;;3.07;;
37529;SDS011;23374;52.758;6.872;2024-02-16T00:17:43;4.90;;;2.67;;
37529;SDS011;23374;52.758;6.872;2024-02-16T00:20:04;5.77;;;2.80;;
37529;SDS011;23374;52.758;6.872;2024-02-16T00:22:26;7.73;;;2.77;;
37529;SDS011;23374;52.758;6.872;2024-02-16T00:24:47;5.83;;;2.50;;
37529;SDS011;23374;52.758;6.872;2024-02-16T00:27:07;4.27;;;2.17;;
37529;SDS011;23374;52.758;6.872;2024-02-16T00:29:28;3.07;;;1.83;;
37529;SDS011;23374;52.758;6.872;2024-02-16T00:31:48;10.80;;;2.57;;
37529;SDS011;23374;52.758;6.872;2024-02-16T00:34:09;6.80;;;2.77;;
37529;SDS011;23374;52.758;6.872;2024-02-16T00:36:30;4.63;;;2.40;;
37529;SDS011;23374;52.758;6.872;2024-02-16T00:38:53;4.40;;;2.77;;
37529;SDS011;23374;52.758;6.872;2024-02-16T00:41:19;8.07;;;2.47;;
37529;SDS011;23374;52.758;6.872;2024-02-16T00:43:41;7.43;;;2.60;;
37529;SDS011;23374;52.758;6.872;2024-02-16T00:46:04;5.13;;;2.10;;
37529;SDS011;23374;52.758;6.872;2024-02-16T00:48:25;4.47;;;2.37;;
37529;SDS011;23374;52.758;6.872;2024-02-16T00:50:46;4.87;;;2.33;;
37529;SDS011;23374;52.758;6.872;2024-02-16T00:53:06;4.97;;;2.10;;
37529;SDS011;23374;52.758;6.872;2024-02-16T00:55:27;6.90;;;2.17;;
37529;SDS011;23374;52.758;6.872;2024-02-16T00:57:47;5.53;;;2.57;;
37529;SDS011;23374;52.758;6.872;2024-02-16T01:00:09;5.67;;;2.40;;
37529;SDS011;23374;52.758;6.872;2024-02-16T01:02:30;3.73;;;2.37;;
37529;SDS011;23374;52.758;6.872;2024-02-16T01:04:51;4.70;;;1.90;;
37529;SDS011;23374;52.758;6.872;2024-02-16T01:07:12;5.73;;;2.30;;
37529;SDS011;23374;52.758;6.872;2024-02-16T01:09:32;4.83;;;2.40;;
37529;SDS011;23374;52.758;6.872;2024-02-16T01:11:53;3.57;;;2.23;;
37529;SDS011;23374;52.758;6.872;2024-02-16T01:14:14;3.87;;;2.27;;
37529;SDS011;23374;52.758;6.872;2024-02-16T01:16:34;3.77;;;1.90;;
37529;SDS011;23374;52.758;6.872;2024-02-16T01:18:55;3.60;;;2.50;;
37529;SDS011;23374;52.758;6.872;2024-02-16T01:21:16;3.97;;;2.10;;
37529;SDS011;23374;52.758;6.872;2024-02-16T01:23:36;7.30;;;2.40;;
37529;SDS011;23374;52.758;6.872;2024-02-16T01:25:56;8.07;;;2.37;;
37529;SDS011;23374;52.758;6.872;2024-02-16T01:28:17;4.47;;;2.20;;
37529;SDS011;23374;52.758;6.872;2024-02-16T01:30:37;3.83;;;2.10;;
37529;SDS011;23374;52.758;6.872;2024-02-16T01:32:57;5.53;;;2.40;;
37529;SDS011;23374;52.758;6.872;2024-02-16T01:36:50;6.10;;;2.47;;
37529;SDS011;23374;52.758;6.872;2024-02-16T01:39:10;6.77;;;2.33;;
37529;SDS011;23374;52.758;6.872;2024-02-16T01:41:30;3.13;;;2.33;;
37529;SDS011;23374;52.758;6.872;2024-02-16T01:43:54;3.80;;;2.03;;
37529;SDS011;23374;52.758;6.872;2024-02-16T01:46:17;2.90;;;2.27;;
37529;SDS011;23374;52.758;6.872;2024-02-16T01:48:37;7.07;;;2.30;;
37529;SDS011;23374;52.758;6.872;2024-02-16T01:51:00;5.47;;;2.37;;
37529;SDS011;23374;52.758;6.872;2024-02-16T01:53:21;4.07;;;2.53;;
37529;SDS011;23374;52.758;6.872;2024-02-16T01:55:42;6.57;;;2.57;;
37529;SDS011;23374;52.758;6.872;2024-02-16T01:58:04;10.17;;;2.57;;
37529;SDS011;23374;52.758;6.872;2024-02-16T02:00:25;7.63;;;2.50;;
37529;SDS011;23374;52.758;6.872;2024-02-16T02:02:45;4.07;;;2.43;;
37529;SDS011;23374;52.758;6.872;2024-02-16T02:05:07;4.93;;;2.17;;
37529;SDS011;23374;52.758;6.872;2024-02-16T02:07:27;3.93;;;2.10;;
37529;SDS011;23374;52.758;6.872;2024-02-16T02:09:48;7.97;;;2.50;;
37529;SDS011;23374;52.758;6.872;2024-02-16T02:12:09;3.87;;;2.23;;
37529;SDS011;23374;52.758;6.872;2024-02-16T02:14:29;3.77;;;2.20;;
37529;SDS011;23374;52.758;6.872;2024-02-16T02:16:50;7.37;;;2.20;;
37529;SDS011;23374;52.758;6.872;2024-02-16T02:19:10;5.13;;;2.40;;
37529;SDS011;23374;52.758;6.872;2024-02-16T02:21:30;5.80;;;2.17;;
37529;SDS011;23374;52.758;6.872;2024-02-16T02:23:51;4.57;;;2.50;;
37529;SDS011;23374;52.758;6.872;2024-02-16T02:26:14;4.70;;;2.67;;
37529;SDS011;23374;52.758;6.872;2024-02-16T02:28:36;7.20;;;2.53;;
37529;SDS011;23374;52.758;6.872;2024-02-16T02:30:56;3.63;;;1.80;;
37529;SDS011;23374;52.758;6.872;2024-02-16T02:33:17;6.03;;;2.57;;
37529;SDS011;23374;52.758;6.872;2024-02-16T02:35:37;4.57;;;2.20;;
37529;SDS011;23374;52.758;6.872;2024-02-16T02:37:58;4.90;;;2.20;;
37529;SDS011;23374;52.758;6.872;2024-02-16T02:40:18;3.60;;;2.00;;
37529;SDS011;23374;52.758;6.872;2024-02-16T02:42:39;4.37;;;2.47;;
37529;SDS011;23374;52.758;6.872;2024-02-16T02:44:59;5.00;;;2.20;;
37529;SDS011;23374;52.758;6.872;2024-02-16T02:47:19;6.27;;;2.03;;
37529;SDS011;23374;52.758;6.872;2024-02-16T02:49:39;3.50;;;1.90;;
37529;SDS011;23374;52.758;6.872;2024-02-16T02:51:59;8.83;;;2.17;;
37529;SDS011;23374;52.758;6.872;2024-02-16T02:54:19;3.97;;;1.90;;
37529;SDS011;23374;52.758;6.872;2024-02-16T02:56:40;2.40;;;1.90;;
37529;SDS011;23374;52.758;6.872;2024-02-16T02:59:01;4.93;;;1.70;;
37529;SDS011;23374;52.758;6.872;2024-02-16T03:01:21;2.80;;;1.57;;
37529;SDS011;23374;52.758;6.872;2024-02-16T03:03:42;5.13;;;2.10;;
37529;SDS011;23374;52.758;6.872;2024-02-16T03:06:03;2.30;;;1.53;;
37529;SDS011;23374;52.758;6.872;2024-02-16T03:08:23;6.40;;;1.77;;
37529;SDS011;23374;52.758;6.872;2024-02-16T03:10:44;3.23;;;1.50;;
37529;SDS011;23374;52.758;6.872;2024-02-16T03:13:04;2.37;;;1.70;;
37529;SDS011;23374;52.758;6.872;2024-02-16T03:15:26;4.90;;;1.97;;
37529;SDS011;23374;52.758;6.872;2024-02-16T03:17:47;3.20;;;1.83;;
37529;SDS011;23374;52.758;6.872;2024-02-16T03:20:07;2.87;;;1.70;;
37529;SDS011;23374;52.758;6.872;2024-02-16T03:22:29;14.00;;;2.27;;
37529;SDS011;23374;52.758;6.872;2024-02-16T03:24:49;5.10;;;2.10;;
37529;SDS011;23374;52.758;6.872;2024-02-16T03:27:10;4.33;;;2.07;;
37529;SDS011;23374;52.758;6.872;2024-02-16T03:29:30;3.23;;;1.63;;
37529;SDS011;23374;52.758;6.872;2024-02-16T03:31:51;2.33;;;1.53;;
37529;SDS011;23374;52.758;6.872;2024-02-16T03:34:11;5.10;;;1.83;;
37529;SDS011;23374;52.758;6.872;2024-02-16T03:36:31;6.97;;;1.90;;
37529;SDS011;23374;52.758;6.872;2024-02-16T03:38:52;5.87;;;2.37;;
37529;SDS011;23374;52.758;6.872;2024-02-16T03:41:14;2.40;;;1.80;;
37529;SDS011;23374;52.758;6.872;2024-02-16T03:43:35;2.40;;;1.70;;
37529;SDS011;23374;52.758;6.872;2024-02-16T03:45:55;3.80;;;1.80;;
37529;SDS011;23374;52.758;6.872;2024-02-16T03:48:15;3.73;;;1.90;;
37529;SDS011;23374;52.758;6.872;2024-02-16T03:50:36;5.00;;;2.20;;
37529;SDS011;23374;52.758;6.872;2024-02-16T03:52:56;3.43;;;1.50;;
37529;SDS011;23374;52.758;6.872;2024-02-16T03:55:17;4.37;;;1.80;;
37529;SDS011;23374;52.758;6.872;2024-02-16T03:57:37;4.50;;;2.00;;
37529;SDS011;23374;52.758;6.872;2024-02-16T03:59:59;5.87;;;1.60;;
37529;SDS011;23374;52.758;6.872;2024-02-16T04:02:19;2.77;;;1.77;;
37529;SDS011;23374;52.758;6.872;2024-02-16T04:04:40;3.63;;;2.03;;
37529;SDS011;23374;52.758;6.872;2024-02-16T04:07:00;4.63;;;1.90;;
37529;SDS011;23374;52.758;6.872;2024-02-16T04:09:20;6.53;;;2.27;;
37529;SDS011;23374;52.758;6.872;2024-02-16T04:11:41;3.37;;;1.80;;
37529;SDS011;23374;52.758;6.872;2024-02-16T04:14:01;2.90;;;1.77;;
37529;SDS011;23374;52.758;6.872;2024-02-16T04:16:21;4.77;;;2.03;;
37529;SDS011;23374;52.758;6.872;2024-02-16T04:18:44;2.90;;;1.63;;
37529;SDS011;23374;52.758;6.872;2024-02-16T04:21:05;3.97;;;1.80;;
37529;SDS011;23374;52.758;6.872;2024-02-16T04:23:25;4.17;;;1.83;;
37529;SDS011;23374;52.758;6.872;2024-02-16T04:25:45;4.93;;;1.93;;
37529;SDS011;23374;52.758;6.872;2024-02-16T04:28:05;3.73;;;2.10;;
37529;SDS011;23374;52.758;6.872;2024-02-16T04:30:25;3.87;;;1.77;;
37529;SDS011;23374;52.758;6.872;2024-02-16T04:32:45;4.40;;;1.80;;
37529;SDS011;23374;52.758;6.872;2024-02-16T04:35:06;2.73;;;1.80;;
37529;SDS011;23374;52.758;6.872;2024-02-16T04:37:31;4.67;;;1.87;;
37529;SDS011;23374;52.758;6.872;2024-02-16T04:39:52;7.17;;;2.03;;
37529;SDS011;23374;52.758;6.872;2024-02-16T04:42:12;3.07;;;1.90;;
37529;SDS011;23374;52.758;6.872;2024-02-16T04:44:37;5.00;;;1.83;;
37529;SDS011;23374;52.758;6.872;2024-02-16T04:47:00;5.40;;;1.73;;
37529;SDS011;23374;52.758;6.872;2024-02-16T04:49:20;3.83;;;1.90;;
37529;SDS011;23374;52.758;6.872;2024-02-16T04:51:41;4.20;;;2.30;;
37529;SDS011;23374;52.758;6.872;2024-02-16T04:54:01;3.43;;;2.10;;
37529;SDS011;23374;52.758;6.872;2024-02-16T04:56:23;3.63;;;2.17;;
37529;SDS011;23374;52.758;6.872;2024-02-16T04:58:44;3.33;;;1.90;;
37529;SDS011;23374;52.758;6.872;2024-02-16T05:01:04;3.63;;;2.03;;
37529;SDS011;23374;52.758;6.872;2024-02-16T05:03:26;3.23;;;2.10;;
37529;SDS011;23374;52.758;6.872;2024-02-16T05:05:46;5.27;;;2.33;;
37529;SDS011;23374;52.758;6.872;2024-02-16T05:08:07;5.57;;;2.03;;
37529;SDS011;23374;52.758;6.872;2024-02-16T05:10:27;4.47;;;1.80;;
37529;SDS011;23374;52.758;6.872;2024-02-16T05:12:47;5.50;;;1.77;;
37529;SDS011;23374;52.758;6.872;2024-02-16T05:15:08;4.53;;;2.27;;
37529;SDS011;23374;52.758;6.872;2024-02-16T05:17:29;5.37;;;2.30;;
37529;SDS011;23374;52.758;6.872;2024-02-16T05:19:49;4.57;;;1.90;;
37529;SDS011;23374;52.758;6.872;2024-02-16T05:22:09;5.23;;;2.07;;
37529;SDS011;23374;52.758;6.872;2024-02-16T05:24:29;7.00;;;2.17;;
37529;SDS011;23374;52.758;6.872;2024-02-16T05:26:49;2.60;;;1.87;;
37529;SDS011;23374;52.758;6.872;2024-02-16T05:29:11;3.80;;;1.87;;
37529;SDS011;23374;52.758;6.872;2024-02-16T05:31:31;4.20;;;2.07;;
37529;SDS011;23374;52.758;6.872;2024-02-16T05:33:52;4.80;;;2.20;;
37529;SDS011;23374;52.758;6.872;2024-02-16T05:36:12;3.80;;;1.63;;
37529;SDS011;23374;52.758;6.872;2024-02-16T05:38:32;3.90;;;2.40;;
37529;SDS011;23374;52.758;6.872;2024-02-16T05:40:59;7.63;;;2.40;;
37529;SDS011;23374;52.758;6.872;2024-02-16T05:43:20;6.60;;;1.90;;
37529;SDS011;23374;52.758;6.872;2024-02-16T05:45:40;3.23;;;2.03;;
37529;SDS011;23374;52.758;6.872;2024-02-16T05:48:01;4.27;;;2.00;;
37529;SDS011;23374;52.758;6.872;2024-02-16T05:50:22;3.60;;;2.00;;
37529;SDS011;23374;52.758;6.872;2024-02-16T05:52:42;5.83;;;2.40;;
37529;SDS011;23374;52.758;6.872;2024-02-16T05:55:04;5.27;;;2.10;;
37529;SDS011;23374;52.758;6.872;2024-02-16T05:57:28;7.23;;;2.20;;
37529;SDS011;23374;52.758;6.872;2024-02-16T05:59:49;4.23;;;2.10;;
37529;SDS011;23374;52.758;6.872;2024-02-16T06:02:09;5.53;;;2.40;;
37529;SDS011;23374;52.758;6.872;2024-02-16T06:04:31;3.70;;;2.27;;
37529;SDS011;23374;52.758;6.872;2024-02-16T06:06:51;4.23;;;2.13;;
37529;SDS011;23374;52.758;6.872;2024-02-16T06:09:13;3.83;;;2.27;;
37529;SDS011;23374;52.758;6.872;2024-02-16T06:11:37;7.17;;;2.53;;
37529;SDS011;23374;52.758;6.872;2024-02-16T06:13:58;5.20;;;2.20;;
37529;SDS011;23374;52.758;6.872;2024-02-16T06:16:19;3.30;;;2.10;;
37529;SDS011;23374;52.758;6.872;2024-02-16T06:18:39;5.97;;;2.53;;
37529;SDS011;23374;52.758;6.872;2024-02-16T06:21:01;6.80;;;2.40;;
37529;SDS011;23374;52.758;6.872;2024-02-16T06:23:22;5.83;;;2.47;;
37529;SDS011;23374;52.758;6.872;2024-02-16T06:25:43;4.43;;;2.20;;
37529;SDS011;23374;52.758;6.872;2024-02-16T06:28:04;4.63;;;2.17;;
37529;SDS011;23374;52.758;6.872;2024-02-16T06:30:24;7.20;;;2.33;;
37529;SDS011;23374;52.758;6.872;2024-02-16T06:32:45;4.53;;;2.17;;
37529;SDS011;23374;52.758;6.872;2024-02-16T06:35:06;4.00;;;2.40;;
37529;SDS011;23374;52.758;6.872;2024-02-16T06:37:27;3.47;;;1.93;;
37529;SDS011;23374;52.758;6.872;2024-02-16T06:39:48;3.07;;;2.03;;
37529;SDS011;23374;52.758;6.872;2024-02-16T06:42:08;4.77;;;2.13;;
37529;SDS011;23374;52.758;6.872;2024-02-16T06:44:31;6.43;;;2.53;;
37529;SDS011;23374;52.758;6.872;2024-02-16T06:46:52;7.53;;;2.10;;
37529;SDS011;23374;52.758;6.872;2024-02-16T06:49:13;4.27;;;2.27;;
37529;SDS011;23374;52.758;6.872;2024-02-16T06:51:34;4.13;;;1.93;;
37529;SDS011;23374;52.758;6.872;2024-02-16T06:53:55;7.00;;;2.23;;
37529;SDS011;23374;52.758;6.872;2024-02-16T06:56:16;4.90;;;2.50;;
37529;SDS011;23374;52.758;6.872;2024-02-16T06:58:38;5.23;;;2.63;;
37529;SDS011;23374;52.758;6.872;2024-02-16T07:00:58;5.40;;;2.20;;
37529;SDS011;23374;52.758;6.872;2024-02-16T07:03:22;4.80;;;2.23;;
37529;SDS011;23374;52.758;6.872;2024-02-16T07:05:43;5.10;;;2.23;;
37529;SDS011;23374;52.758;6.872;2024-02-16T07:08:04;3.77;;;2.00;;
37529;SDS011;23374;52.758;6.872;2024-02-16T07:10:27;4.83;;;2.40;;
37529;SDS011;23374;52.758;6.872;2024-02-16T07:12:47;6.33;;;2.20;;
37529;SDS011;23374;52.758;6.872;2024-02-16T07:15:08;3.60;;;2.57;;
37529;SDS011;23374;52.758;6.872;2024-02-16T07:17:28;5.03;;;2.03;;
37529;SDS011;23374;52.758;6.872;2024-02-16T07:19:49;4.17;;;2.47;;
37529;SDS011;23374;52.758;6.872;2024-02-16T07:22:10;6.23;;;2.13;;
37529;SDS011;23374;52.758;6.872;2024-02-16T07:24:32;6.03;;;1.93;;
37529;SDS011;23374;52.758;6.872;2024-02-16T07:26:53;4.47;;;2.33;;
37529;SDS011;23374;52.758;6.872;2024-02-16T07:29:13;5.60;;;2.67;;
37529;SDS011;23374;52.758;6.872;2024-02-16T07:31:36;4.73;;;2.07;;
37529;SDS011;23374;52.758;6.872;2024-02-16T07:33:56;2.90;;;2.03;;
37529;SDS011;23374;52.758;6.872;2024-02-16T07:36:17;6.50;;;2.40;;
37529;SDS011;23374;52.758;6.872;2024-02-16T07:38:38;4.40;;;2.30;;
37529;SDS011;23374;52.758;6.872;2024-02-16T07:40:59;3.37;;;2.40;;
37529;SDS011;23374;52.758;6.872;2024-02-16T07:43:19;3.77;;;2.20;;
37529;SDS011;23374;52.758;6.872;2024-02-16T07:45:41;5.27;;;2.60;;
37529;SDS011;23374;52.758;6.872;2024-02-16T07:48:01;3.87;;;2.57;;
37529;SDS011;23374;52.758;6.872;2024-02-16T07:50:25;4.57;;;1.83;;
37529;SDS011;23374;52.758;6.872;2024-02-16T07:52:45;7.70;;;2.70;;
37529;SDS011;23374;52.758;6.872;2024-02-16T07:55:07;3.90;;;2.00;;
37529;SDS011;23374;52.758;6.872;2024-02-16T07:57:29;5.07;;;2.10;;
37529;SDS011;23374;52.758;6.872;2024-02-16T07:59:50;6.80;;;2.40;;
37529;SDS011;23374;52.758;6.872;2024-02-16T08:02:11;5.13;;;2.43;;
37529;SDS011;23374;52.758;6.872;2024-02-16T08:04:35;3.40;;;2.10;;
37529;SDS011;23374;52.758;6.872;2024-02-16T08:06:55;3.00;;;2.13;;
37529;SDS011;23374;52.758;6.872;2024-02-16T08:09:15;6.70;;;2.20;;
37529;SDS011;23374;52.758;6.872;2024-02-16T08:11:36;2.77;;;1.93;;
37529;SDS011;23374;52.758;6.872;2024-02-16T08:13:56;5.33;;;2.20;;
37529;SDS011;23374;52.758;6.872;2024-02-16T08:16:20;3.13;;;2.17;;
37529;SDS011;23374;52.758;6.872;2024-02-16T08:18:43;5.67;;;2.60;;
37529;SDS011;23374;52.758;6.872;2024-02-16T08:21:04;3.10;;;1.83;;
37529;SDS011;23374;52.758;6.872;2024-02-16T08:23:25;3.17;;;2.17;;
37529;SDS011;23374;52.758;6.872;2024-02-16T08:25:46;5.37;;;2.20;;
37529;SDS011;23374;52.758;6.872;2024-02-16T08:28:06;4.70;;;2.13;;
37529;SDS011;23374;52.758;6.872;2024-02-16T08:30:27;3.47;;;2.30;;
37529;SDS011;23374;52.758;6.872;2024-02-16T08:32:47;3.83;;;2.30;;
37529;SDS011;23374;52.758;6.872;2024-02-16T08:35:08;3.67;;;2.37;;
37529;SDS011;23374;52.758;6.872;2024-02-16T08:37:29;2.47;;;2.00;;
37529;SDS011;23374;52.758;6.872;2024-02-16T08:39:49;3.57;;;2.23;;
37529;SDS011;23374;52.758;6.872;2024-02-16T08:42:09;3.33;;;2.30;;
37529;SDS011;23374;52.758;6.872;2024-02-16T08:44:31;4.07;;;2.30;;
37529;SDS011;23374;52.758;6.872;2024-02-16T08:46:52;5.07;;;2.27;;
37529;SDS011;23374;52.758;6.872;2024-02-16T08:49:14;4.50;;;2.03;;
37529;SDS011;23374;52.758;6.872;2024-02-16T08:51:35;3.00;;;1.90;;
37529;SDS011;23374;52.758;6.872;2024-02-16T08:53:55;3.77;;;2.30;;
37529;SDS011;23374;52.758;6.872;2024-02-16T08:56:15;7.53;;;2.00;;
37529;SDS011;23374;52.758;6.872;2024-02-16T08:58:36;3.30;;;2.00;;
37529;SDS011;23374;52.758;6.872;2024-02-16T09:00:57;2.87;;;2.03;;
37529;SDS011;23374;52.758;6.872;2024-02-16T09:03:17;3.40;;;2.17;;
37529;SDS011;23374;52.758;6.872;2024-02-16T09:05:38;3.87;;;1.73;;
37529;SDS011;23374;52.758;6.872;2024-02-16T09:07:58;4.70;;;2.30;;
37529;SDS011;23374;52.758;6.872;2024-02-16T09:10:19;3.67;;;2.13;;
37529;SDS011;23374;52.758;6.872;2024-02-16T09:12:39;6.53;;;2.50;;
37529;SDS011;23374;52.758;6.872;2024-02-16T09:15:00;5.90;;;2.40;;
37529;SDS011;23374;52.758;6.872;2024-02-16T09:17:20;3.80;;;2.10;;
37529;SDS011;23374;52.758;6.872;2024-02-16T09:19:41;5.03;;;2.30;;
37529;SDS011;23374;52.758;6.872;2024-02-16T09:22:01;5.57;;;2.33;;
37529;SDS011;23374;52.758;6.872;2024-02-16T09:24:22;4.07;;;2.57;;
37529;SDS011;23374;52.758;6.872;2024-02-16T09:26:45;4.87;;;2.23;;
37529;SDS011;23374;52.758;6.872;2024-02-16T09:29:05;6.43;;;2.90;;
37529;SDS011;23374;52.758;6.872;2024-02-16T09:31:26;6.40;;;2.23;;
37529;SDS011;23374;52.758;6.872;2024-02-16T09:33:46;3.00;;;2.07;;
37529;SDS011;23374;52.758;6.872;2024-02-16T09:36:07;4.07;;;2.80;;
37529;SDS011;23374;52.758;6.872;2024-02-16T09:38:29;5.90;;;2.37;;
37529;SDS011;23374;52.758;6.872;2024-02-16T09:40:50;5.83;;;2.60;;
37529;SDS011;23374;52.758;6.872;2024-02-16T09:43:31;4.73;;;2.40;;
37529;SDS011;23374;52.758;6.872;2024-02-16T09:45:53;5.70;;;2.70;;
37529;SDS011;23374;52.758;6.872;2024-02-16T09:48:15;4.37;;;2.97;;
37529;SDS011;23374;52.758;6.872;2024-02-16T09:50:35;4.27;;;2.83;;
37529;SDS011;23374;52.758;6.872;2024-02-16T09:52:56;6.20;;;3.10;;
37529;SDS011;23374;52.758;6.872;2024-02-16T09:55:17;6.83;;;2.63;;
37529;SDS011;23374;52.758;6.872;2024-02-16T09:57:37;5.83;;;2.70;;
37529;SDS011;23374;52.758;6.872;2024-02-16T09:59:57;3.97;;;2.30;;
37529;SDS011;23374;52.758;6.872;2024-02-16T10:02:19;6.03;;;2.80;;
37529;SDS011;23374;52.758;6.872;2024-02-16T10:04:39;6.10;;;3.07;;
37529;SDS011;23374;52.758;6.872;2024-02-16T10:06:59;9.37;;;2.33;;
37529;SDS011;23374;52.758;6.872;2024-02-16T10:09:26;7.73;;;3.00;;
37529;SDS011;23374;52.758;6.872;2024-02-16T10:11:52;5.23;;;3.00;;
37529;SDS011;23374;52.758;6.872;2024-02-16T10:14:12;5.57;;;2.50;;
37529;SDS011;23374;52.758;6.872;2024-02-16T10:16:33;7.77;;;2.90;;
37529;SDS011;23374;52.758;6.872;2024-02-16T10:19:07;4.70;;;2.80;;
37529;SDS011;23374;52.758;6.872;2024-02-16T10:21:30;7.43;;;3.10;;
37529;SDS011;23374;52.758;6.872;2024-02-16T10:24:01;5.67;;;3.40;;
37529;SDS011;23374;52.758;6.872;2024-02-16T10:26:29;5.70;;;2.63;;
37529;SDS011;23374;52.758;6.872;2024-02-16T10:28:51;5.43;;;3.10;;
37529;SDS011;23374;52.758;6.872;2024-02-16T10:31:16;5.93;;;3.57;;
37529;SDS011;23374;52.758;6.872;2024-02-16T10:33:36;5.80;;;3.03;;
37529;SDS011;23374;52.758;6.872;2024-02-16T10:35:58;4.73;;;2.73;;
37529;SDS011;23374;52.758;6.872;2024-02-16T10:38:19;4.50;;;3.27;;
37529;SDS011;23374;52.758;6.872;2024-02-16T10:40:40;5.93;;;3.37;;
37529;SDS011;23374;52.758;6.872;2024-02-16T10:43:03;6.70;;;3.20;;
37529;SDS011;23374;52.758;6.872;2024-02-16T10:45:28;9.67;;;3.13;;
37529;SDS011;23374;52.758;6.872;2024-02-16T10:47:48;4.40;;;2.90;;
37529;SDS011;23374;52.758;6.872;2024-02-16T10:50:09;4.33;;;2.77;;
37529;SDS011;23374;52.758;6.872;2024-02-16T10:52:30;7.63;;;3.70;;
37529;SDS011;23374;52.758;6.872;2024-02-16T10:54:52;7.40;;;3.70;;
37529;SDS011;23374;52.758;6.872;2024-02-16T10:57:12;6.43;;;2.57;;
37529;SDS011;23374;52.758;6.872;2024-02-16T10:59:43;12.70;;;3.83;;
37529;SDS011;23374;52.758;6.872;2024-02-16T11:02:06;5.97;;;3.27;;
37529;SDS011;23374;52.758;6.872;2024-02-16T11:04:38;5.17;;;3.27;;
37529;SDS011;23374;52.758;6.872;2024-02-16T11:06:59;7.07;;;3.40;;
37529;SDS011;23374;52.758;6.872;2024-02-16T11:09:33;5.57;;;3.40;;
37529;SDS011;23374;52.758;6.872;2024-02-16T11:11:58;7.33;;;3.40;;
37529;SDS011;23374;52.758;6.872;2024-02-16T11:14:21;5.43;;;3.57;;
37529;SDS011;23374;52.758;6.872;2024-02-16T11:16:47;5.50;;;3.43;;
37529;SDS011;23374;52.758;6.872;2024-02-16T11:19:07;9.73;;;3.57;;
37529;SDS011;23374;52.758;6.872;2024-02-16T11:21:28;7.33;;;3.60;;
37529;SDS011;23374;52.758;6.872;2024-02-16T11:23:48;5.63;;;3.27;;
37529;SDS011;23374;52.758;6.872;2024-02-16T11:26:11;7.40;;;3.80;;
37529;SDS011;23374;52.758;6.872;2024-02-16T11:28:33;8.03;;;3.67;;
37529;SDS011;23374;52.758;6.872;2024-02-16T11:30:54;6.83;;;3.40;;
37529;SDS011;23374;52.758;6.872;2024-02-16T11:33:15;7.40;;;3.20;;
37529;SDS011;23374;52.758;6.872;2024-02-16T11:35:35;7.33;;;3.80;;
37529;SDS011;23374;52.758;6.872;2024-02-16T11:37:56;6.43;;;3.60;;
37529;SDS011;23374;52.758;6.872;2024-02-16T11:40:16;5.40;;;3.57;;
37529;SDS011;23374;52.758;6.872;2024-02-16T11:42:38;7.03;;;3.97;;
37529;SDS011;23374;52.758;6.872;2024-02-16T11:45:00;7.47;;;3.70;;
37529;SDS011;23374;52.758;6.872;2024-02-16T11:47:24;12.87;;;4.07;;
37529;SDS011;23374;52.758;6.872;2024-02-16T11:49:46;9.93;;;4.30;;
37529;SDS011;23374;52.758;6.872;2024-02-16T11:52:10;8.43;;;4.63;;
37529;SDS011;23374;52.758;6.872;2024-02-16T11:54:30;7.47;;;4.33;;
37529;SDS011;23374;52.758;6.872;2024-02-16T11:56:52;13.07;;;5.20;;
37529;SDS011;23374;52.758;6.872;2024-02-16T11:59:15;8.47;;;4.87;;
37529;SDS011;23374;52.758;6.872;2024-02-16T12:01:39;8.17;;;5.20;;
37529;SDS011;23374;52.758;6.872;2024-02-16T12:06:59;10.20;;;6.93;;
37529;SDS011;23374;52.758;6.872;2024-02-16T12:09:21;11.60;;;7.20;;
37529;SDS011;23374;52.758;6.872;2024-02-16T12:11:41;11.43;;;6.27;;
37529;SDS011;23374;52.758;6.872;2024-02-16T12:14:01;11.50;;;7.23;;
37529;SDS011;23374;52.758;6.872;2024-02-16T12:16:25;10.90;;;6.87;;
37529;SDS011;23374;52.758;6.872;2024-02-16T12:18:45;12.23;;;7.33;;
37529;SDS011;23374;52.758;6.872;2024-02-16T12:21:06;12.70;;;8.50;;
37529;SDS011;23374;52.758;6.872;2024-02-16T12:23:27;13.33;;;7.57;;
37529;SDS011;23374;52.758;6.872;2024-02-16T12:25:50;10.60;;;7.10;;
37529;SDS011;23374;52.758;6.872;2024-02-16T12:28:10;12.87;;;7.83;;
37529;SDS011;23374;52.758;6.872;2024-02-16T12:30:31;12.60;;;7.80;;
37529;SDS011;23374;52.758;6.872;2024-02-16T12:32:51;12.90;;;7.83;;
37529;SDS011;23374;52.758;6.872;2024-02-16T12:35:12;9.87;;;7.10;;
37529;SDS011;23374;52.758;6.872;2024-02-16T12:37:33;12.07;;;8.00;;
37529;SDS011;23374;52.758;6.872;2024-02-16T12:39:54;13.47;;;7.93;;
37529;SDS011;23374;52.758;6.872;2024-02-16T12:42:15;14.17;;;8.13;;
37529;SDS011;23374;52.758;6.872;2024-02-16T12:44:35;13.07;;;8.00;;
37529;SDS011;23374;52.758;6.872;2024-02-16T12:46:56;14.50;;;8.07;;
37529;SDS011;23374;52.758;6.872;2024-02-16T12:49:16;13.97;;;7.63;;
37529;SDS011;23374;52.758;6.872;2024-02-16T12:51:36;12.40;;;7.93;;
37529;SDS011;23374;52.758;6.872;2024-02-16T12:53:57;11.40;;;7.30;;
37529;SDS011;23374;52.758;6.872;2024-02-16T12:56:19;13.77;;;7.43;;
37529;SDS011;23374;52.758;6.872;2024-02-16T12:58:41;12.83;;;7.67;;
37529;SDS011;23374;52.758;6.872;2024-02-16T13:01:05;11.57;;;7.30;;
37529;SDS011;23374;52.758;6.872;2024-02-16T13:03:26;14.03;;;6.77;;
37529;SDS011;23374;52.758;6.872;2024-02-16T13:05:46;11.43;;;6.93;;
37529;SDS011;23374;52.758;6.872;2024-02-16T13:08:06;10.27;;;6.30;;
37529;SDS011;23374;52.758;6.872;2024-02-16T13:10:26;10.67;;;6.33;;
37529;SDS011;23374;52.758;6.872;2024-02-16T13:12:46;10.60;;;6.00;;
37529;SDS011;23374;52.758;6.872;2024-02-16T13:15:07;8.87;;;5.73;;
37529;SDS011;23374;52.758;6.872;2024-02-16T13:17:28;9.37;;;6.10;;
37529;SDS011;23374;52.758;6.872;2024-02-16T13:19:49;8.77;;;6.10;;
37529;SDS011;23374;52.758;6.872;2024-02-16T13:22:09;9.33;;;4.87;;
37529;SDS011;23374;52.758;6.872;2024-02-16T13:24:29;10.20;;;5.53;;
37529;SDS011;23374;52.758;6.872;2024-02-16T13:26:50;9.20;;;5.50;;
37529;SDS011;23374;52.758;6.872;2024-02-16T13:29:10;8.60;;;5.17;;
37529;SDS011;23374;52.758;6.872;2024-02-16T13:31:31;8.70;;;4.80;;
37529;SDS011;23374;52.758;6.872;2024-02-16T13:33:53;7.53;;;5.00;;
37529;SDS011;23374;52.758;6.872;2024-02-16T13:36:13;6.73;;;3.53;;
37529;SDS011;23374;52.758;6.872;2024-02-16T13:38:34;8.57;;;4.13;;
37529;SDS011;23374;52.758;6.872;2024-02-16T13:40:54;9.57;;;3.70;;
37529;SDS011;23374;52.758;6.872;2024-02-16T13:43:14;7.30;;;3.60;;
37529;SDS011;23374;52.758;6.872;2024-02-16T13:45:52;7.03;;;3.70;;
37529;SDS011;23374;52.758;6.872;2024-02-16T13:48:13;5.27;;;3.37;;
37529;SDS011;23374;52.758;6.872;2024-02-16T13:50:34;6.40;;;3.80;;
37529;SDS011;23374;52.758;6.872;2024-02-16T13:52:54;6.33;;;3.27;;
37529;SDS011;23374;52.758;6.872;2024-02-16T13:55:14;5.83;;;3.23;;
37529;SDS011;23374;52.758;6.872;2024-02-16T13:57:35;5.30;;;2.97;;
37529;SDS011;23374;52.758;6.872;2024-02-16T13:59:55;5.77;;;3.23;;
37529;SDS011;23374;52.758;6.872;2024-02-16T14:02:16;6.17;;;3.33;;
37529;SDS011;23374;52.758;6.872;2024-02-16T14:04:37;5.17;;;3.13;;
37529;SDS011;23374;52.758;6.872;2024-02-16T14:06:57;6.47;;;3.10;;
37529;SDS011;23374;52.758;6.872;2024-02-16T14:09:18;4.93;;;3.00;;
37529;SDS011;23374;52.758;6.872;2024-02-16T14:11:38;5.23;;;2.70;;
37529;SDS011;23374;52.758;6.872;2024-02-16T14:13:59;4.30;;;2.70;;